This is the latest recevied weather packets stored in our database for station/object WS4FSC-7. If no packets are shown the sender has not sent any weather packets the latest 10 day(s).
| Time | Temp. | Humidity | Pressure | Rain* | Wind** | Luminosity | Snow |
|---|---|---|---|---|---|---|---|
| 1787577076 | 30.56° C | 71% | 1016 hPa | - | - | 321 W/m² | - |
| 1787576896 | 30.56° C | 72% | 1016 hPa | - | - | 329 W/m² | - |
| 1787576176 | 29.44° C | 74% | 1016 hPa | - | - | 273 W/m² | - |
| 1787573656 | 26.67° C | 85% | 1016 hPa | - | - | 79 W/m² | - |
| 1787573477 | 26.67° C | 86% | 1016 hPa | - | - | 73 W/m² | - |
| 1787573328 | 26.67° C | 87% | 1016 hPa | - | - | 70 W/m² | - |
| 1787573296 | 26.67° C | 87% | 1016 hPa | - | - | 70 W/m² | - |
| 1787573116 | 26.67° C | 88% | 1016 hPa | - | - | 68 W/m² | - |
| 1787572576 | 26.67° C | 86% | 1016 hPa | - | - | 57 W/m² | - |
| 1787571855 | 26.67° C | 84% | 1016 hPa | - | - | 44 W/m² | - |
| 1787571563 | 26.67° C | 86% | 1016 hPa | - | - | 40 W/m² | - |
| 1787571495 | 26.67° C | 86% | 1016 hPa | - | - | 40 W/m² | - |
| 1787571135 | 26.11° C | 86% | 1015 hPa | - | - | 41 W/m² | - |
| 1787570597 | 25.56° C | 87% | 1015 hPa | - | - | 26 W/m² | - |
| 1787570056 | 25.56° C | 89% | 1015 hPa | - | - | 13 W/m² | - |
| 1787569876 | 25° C | 89% | 1015 hPa | - | - | 10 W/m² | - |
| 1787569788 | 25° C | 90% | 1015 hPa | - | - | 8 W/m² | - |
| 1787569696 | 25° C | 90% | 1015 hPa | - | - | 8 W/m² | - |
| 1787569156 | 25° C | 90% | 1015 hPa | - | - | 3 W/m² | - |
| 1787568870 | 25° C | 90% | 1015 hPa | - | - | 1 W/m² | - |
| 1787568796 | 25° C | 90% | 1015 hPa | - | - | 1 W/m² | - |
| 1787568256 | 25° C | 91% | 1015 hPa | - | - | 0 W/m² | - |
| 1787568075 | 25° C | 91% | 1015 hPa | - | - | 0 W/m² | - |
| 1787567961 | 25° C | 92% | 1015 hPa | - | - | 0 W/m² | - |
| 1787567895 | 25° C | 92% | 1015 hPa | - | - | 0 W/m² | - |
* Rain since midnight (hover to see other rain measurements)
** Current wind speed in m/s (hover to see current wind gust speed)